sensor_id;sensor_type;location;lat;lon;timestamp;P1;durP1;ratioP1;P2;durP2;ratioP2
16826;SDS011;8530;49.540;8.576;2023-08-06T00:00:20;7.43;;;5.90;;
16826;SDS011;8530;49.540;8.576;2023-08-06T00:02:47;10.60;;;6.50;;
16826;SDS011;8530;49.540;8.576;2023-08-06T00:05:14;11.17;;;8.13;;
16826;SDS011;8530;49.540;8.576;2023-08-06T00:07:44;8.10;;;5.87;;
16826;SDS011;8530;49.540;8.576;2023-08-06T00:10:11;9.77;;;6.00;;
16826;SDS011;8530;49.540;8.576;2023-08-06T00:12:38;6.77;;;5.80;;
16826;SDS011;8530;49.540;8.576;2023-08-06T00:15:05;6.43;;;5.80;;
16826;SDS011;8530;49.540;8.576;2023-08-06T00:17:33;12.90;;;6.33;;
16826;SDS011;8530;49.540;8.576;2023-08-06T00:20:00;11.50;;;5.77;;
16826;SDS011;8530;49.540;8.576;2023-08-06T00:22:29;8.93;;;5.97;;
16826;SDS011;8530;49.540;8.576;2023-08-06T00:24:57;5.93;;;5.33;;
16826;SDS011;8530;49.540;8.576;2023-08-06T00:27:24;8.90;;;5.27;;
16826;SDS011;8530;49.540;8.576;2023-08-06T00:29:51;6.97;;;5.20;;
16826;SDS011;8530;49.540;8.576;2023-08-06T00:32:18;7.57;;;5.10;;
16826;SDS011;8530;49.540;8.576;2023-08-06T00:34:48;5.67;;;5.10;;
16826;SDS011;8530;49.540;8.576;2023-08-06T00:37:15;9.23;;;6.27;;
16826;SDS011;8530;49.540;8.576;2023-08-06T00:39:42;6.10;;;5.47;;
16826;SDS011;8530;49.540;8.576;2023-08-06T00:42:11;7.10;;;4.83;;
16826;SDS011;8530;49.540;8.576;2023-08-06T00:44:38;10.67;;;5.90;;
16826;SDS011;8530;49.540;8.576;2023-08-06T00:47:05;8.67;;;5.97;;
16826;SDS011;8530;49.540;8.576;2023-08-06T00:49:33;8.47;;;5.10;;
16826;SDS011;8530;49.540;8.576;2023-08-06T00:52:01;5.47;;;4.90;;
16826;SDS011;8530;49.540;8.576;2023-08-06T00:54:29;5.73;;;4.53;;
16826;SDS011;8530;49.540;8.576;2023-08-06T00:56:57;5.60;;;5.10;;
16826;SDS011;8530;49.540;8.576;2023-08-06T00:59:27;6.27;;;5.00;;
16826;SDS011;8530;49.540;8.576;2023-08-06T01:01:55;7.57;;;5.23;;
16826;SDS011;8530;49.540;8.576;2023-08-06T01:04:22;6.60;;;5.20;;
16826;SDS011;8530;49.540;8.576;2023-08-06T01:06:51;7.77;;;5.30;;
16826;SDS011;8530;49.540;8.576;2023-08-06T01:09:30;5.63;;;5.13;;
16826;SDS011;8530;49.540;8.576;2023-08-06T01:12:06;6.37;;;4.63;;
16826;SDS011;8530;49.540;8.576;2023-08-06T01:14:44;7.37;;;5.47;;
16826;SDS011;8530;49.540;8.576;2023-08-06T01:17:14;7.03;;;4.93;;
16826;SDS011;8530;49.540;8.576;2023-08-06T01:19:41;5.37;;;4.87;;
16826;SDS011;8530;49.540;8.576;2023-08-06T01:22:09;6.73;;;4.67;;
16826;SDS011;8530;49.540;8.576;2023-08-06T01:24:36;8.20;;;4.50;;
16826;SDS011;8530;49.540;8.576;2023-08-06T01:27:04;6.30;;;4.17;;
16826;SDS011;8530;49.540;8.576;2023-08-06T01:29:41;5.20;;;4.70;;
16826;SDS011;8530;49.540;8.576;2023-08-06T01:32:12;14.50;;;6.03;;
16826;SDS011;8530;49.540;8.576;2023-08-06T01:34:42;7.57;;;4.90;;
16826;SDS011;8530;49.540;8.576;2023-08-06T01:37:12;7.67;;;4.57;;
16826;SDS011;8530;49.540;8.576;2023-08-06T01:39:39;6.13;;;3.87;;
16826;SDS011;8530;49.540;8.576;2023-08-06T01:42:08;5.70;;;3.87;;
16826;SDS011;8530;49.540;8.576;2023-08-06T01:44:35;7.33;;;3.50;;
16826;SDS011;8530;49.540;8.576;2023-08-06T01:47:01;3.83;;;3.43;;
16826;SDS011;8530;49.540;8.576;2023-08-06T01:49:28;6.63;;;4.20;;
16826;SDS011;8530;49.540;8.576;2023-08-06T01:51:55;5.63;;;4.30;;
16826;SDS011;8530;49.540;8.576;2023-08-06T01:54:23;5.13;;;3.63;;
16826;SDS011;8530;49.540;8.576;2023-08-06T01:56:49;4.50;;;3.40;;
16826;SDS011;8530;49.540;8.576;2023-08-06T01:59:16;5.23;;;4.20;;
16826;SDS011;8530;49.540;8.576;2023-08-06T02:01:43;3.63;;;3.30;;
16826;SDS011;8530;49.540;8.576;2023-08-06T02:04:10;3.90;;;3.43;;
16826;SDS011;8530;49.540;8.576;2023-08-06T02:06:36;4.10;;;3.50;;
16826;SDS011;8530;49.540;8.576;2023-08-06T02:09:03;10.97;;;4.37;;
16826;SDS011;8530;49.540;8.576;2023-08-06T02:11:31;6.53;;;3.83;;
16826;SDS011;8530;49.540;8.576;2023-08-06T02:13:58;8.10;;;4.10;;
16826;SDS011;8530;49.540;8.576;2023-08-06T02:16:25;8.07;;;4.30;;
16826;SDS011;8530;49.540;8.576;2023-08-06T02:18:51;5.87;;;3.90;;
16826;SDS011;8530;49.540;8.576;2023-08-06T02:21:18;6.70;;;4.50;;
16826;SDS011;8530;49.540;8.576;2023-08-06T02:23:45;4.67;;;3.60;;
16826;SDS011;8530;49.540;8.576;2023-08-06T02:26:11;6.17;;;3.57;;
16826;SDS011;8530;49.540;8.576;2023-08-06T02:28:39;5.07;;;3.77;;
16826;SDS011;8530;49.540;8.576;2023-08-06T02:31:06;4.40;;;3.53;;
16826;SDS011;8530;49.540;8.576;2023-08-06T02:33:33;8.83;;;4.13;;
16826;SDS011;8530;49.540;8.576;2023-08-06T02:35:59;4.97;;;3.50;;
16826;SDS011;8530;49.540;8.576;2023-08-06T02:38:27;4.50;;;3.63;;
16826;SDS011;8530;49.540;8.576;2023-08-06T02:40:53;6.90;;;3.73;;
16826;SDS011;8530;49.540;8.576;2023-08-06T02:43:20;3.77;;;2.57;;
16826;SDS011;8530;49.540;8.576;2023-08-06T02:45:48;3.93;;;3.03;;
16826;SDS011;8530;49.540;8.576;2023-08-06T02:48:15;3.13;;;2.87;;
16826;SDS011;8530;49.540;8.576;2023-08-06T02:50:43;4.73;;;4.00;;
16826;SDS011;8530;49.540;8.576;2023-08-06T02:53:10;4.90;;;3.80;;
16826;SDS011;8530;49.540;8.576;2023-08-06T02:55:36;6.60;;;4.50;;
16826;SDS011;8530;49.540;8.576;2023-08-06T02:58:03;5.13;;;3.63;;
16826;SDS011;8530;49.540;8.576;2023-08-06T03:00:29;5.57;;;3.30;;
16826;SDS011;8530;49.540;8.576;2023-08-06T03:02:57;4.20;;;3.57;;
16826;SDS011;8530;49.540;8.576;2023-08-06T03:05:24;5.67;;;3.90;;
16826;SDS011;8530;49.540;8.576;2023-08-06T03:07:51;4.00;;;3.60;;
16826;SDS011;8530;49.540;8.576;2023-08-06T03:10:17;5.03;;;3.47;;
16826;SDS011;8530;49.540;8.576;2023-08-06T03:12:45;3.60;;;3.13;;
16826;SDS011;8530;49.540;8.576;2023-08-06T03:15:11;6.30;;;3.50;;
16826;SDS011;8530;49.540;8.576;2023-08-06T03:17:38;5.27;;;3.30;;
16826;SDS011;8530;49.540;8.576;2023-08-06T03:20:07;3.77;;;3.10;;
16826;SDS011;8530;49.540;8.576;2023-08-06T03:22:34;8.20;;;3.00;;
16826;SDS011;8530;49.540;8.576;2023-08-06T03:25:01;3.53;;;2.80;;
16826;SDS011;8530;49.540;8.576;2023-08-06T03:27:27;3.93;;;2.90;;
16826;SDS011;8530;49.540;8.576;2023-08-06T03:29:54;4.80;;;3.17;;
16826;SDS011;8530;49.540;8.576;2023-08-06T03:32:21;4.13;;;3.33;;
16826;SDS011;8530;49.540;8.576;2023-08-06T03:34:47;4.50;;;3.70;;
16826;SDS011;8530;49.540;8.576;2023-08-06T03:37:16;9.50;;;3.27;;
16826;SDS011;8530;49.540;8.576;2023-08-06T03:39:42;3.00;;;2.70;;
16826;SDS011;8530;49.540;8.576;2023-08-06T03:42:09;6.10;;;3.87;;
16826;SDS011;8530;49.540;8.576;2023-08-06T03:44:36;8.40;;;3.90;;
16826;SDS011;8530;49.540;8.576;2023-08-06T03:47:02;3.80;;;2.67;;
16826;SDS011;8530;49.540;8.576;2023-08-06T03:49:30;4.87;;;2.87;;
16826;SDS011;8530;49.540;8.576;2023-08-06T03:51:56;4.63;;;3.17;;
16826;SDS011;8530;49.540;8.576;2023-08-06T03:54:24;3.00;;;2.70;;
16826;SDS011;8530;49.540;8.576;2023-08-06T03:56:51;4.10;;;2.87;;
16826;SDS011;8530;49.540;8.576;2023-08-06T03:59:17;5.63;;;2.50;;
16826;SDS011;8530;49.540;8.576;2023-08-06T04:01:44;10.13;;;2.90;;
16826;SDS011;8530;49.540;8.576;2023-08-06T04:04:11;3.40;;;2.53;;
16826;SDS011;8530;49.540;8.576;2023-08-06T04:06:37;6.10;;;2.70;;
16826;SDS011;8530;49.540;8.576;2023-08-06T04:09:04;4.47;;;2.70;;
16826;SDS011;8530;49.540;8.576;2023-08-06T04:11:32;4.53;;;2.70;;
16826;SDS011;8530;49.540;8.576;2023-08-06T04:13:59;4.23;;;2.67;;
16826;SDS011;8530;49.540;8.576;2023-08-06T04:16:25;4.13;;;2.63;;
16826;SDS011;8530;49.540;8.576;2023-08-06T04:18:52;10.20;;;2.83;;
16826;SDS011;8530;49.540;8.576;2023-08-06T04:21:20;4.27;;;2.77;;
16826;SDS011;8530;49.540;8.576;2023-08-06T04:23:47;10.20;;;3.17;;
16826;SDS011;8530;49.540;8.576;2023-08-06T04:26:13;9.10;;;3.13;;
16826;SDS011;8530;49.540;8.576;2023-08-06T04:28:42;4.20;;;2.60;;
16826;SDS011;8530;49.540;8.576;2023-08-06T04:31:08;4.60;;;3.00;;
16826;SDS011;8530;49.540;8.576;2023-08-06T04:33:35;6.10;;;3.80;;
16826;SDS011;8530;49.540;8.576;2023-08-06T04:36:02;10.40;;;3.73;;
16826;SDS011;8530;49.540;8.576;2023-08-06T04:38:29;7.60;;;3.30;;
16826;SDS011;8530;49.540;8.576;2023-08-06T04:40:55;5.37;;;2.80;;
16826;SDS011;8530;49.540;8.576;2023-08-06T04:43:22;5.13;;;2.87;;
16826;SDS011;8530;49.540;8.576;2023-08-06T04:45:51;5.63;;;3.07;;
16826;SDS011;8530;49.540;8.576;2023-08-06T04:48:19;4.33;;;2.70;;
16826;SDS011;8530;49.540;8.576;2023-08-06T04:50:46;6.93;;;3.07;;
16826;SDS011;8530;49.540;8.576;2023-08-06T04:53:13;4.30;;;2.67;;
16826;SDS011;8530;49.540;8.576;2023-08-06T04:55:41;8.23;;;2.77;;
16826;SDS011;8530;49.540;8.576;2023-08-06T04:58:08;3.10;;;2.40;;
16826;SDS011;8530;49.540;8.576;2023-08-06T05:00:36;2.87;;;2.40;;
16826;SDS011;8530;49.540;8.576;2023-08-06T05:03:04;4.10;;;2.60;;
16826;SDS011;8530;49.540;8.576;2023-08-06T05:05:31;4.10;;;2.10;;
16826;SDS011;8530;49.540;8.576;2023-08-06T05:07:58;8.07;;;1.90;;
16826;SDS011;8530;49.540;8.576;2023-08-06T05:10:24;4.90;;;1.80;;
16826;SDS011;8530;49.540;8.576;2023-08-06T05:12:51;3.60;;;2.50;;
16826;SDS011;8530;49.540;8.576;2023-08-06T05:15:18;3.97;;;1.50;;
16826;SDS011;8530;49.540;8.576;2023-08-06T05:17:45;2.30;;;1.40;;
16826;SDS011;8530;49.540;8.576;2023-08-06T05:20:13;2.70;;;1.80;;
16826;SDS011;8530;49.540;8.576;2023-08-06T05:22:40;5.77;;;2.10;;
16826;SDS011;8530;49.540;8.576;2023-08-06T05:25:07;3.60;;;2.13;;
16826;SDS011;8530;49.540;8.576;2023-08-06T05:27:34;3.17;;;2.10;;
16826;SDS011;8530;49.540;8.576;2023-08-06T05:30:01;7.13;;;2.40;;
16826;SDS011;8530;49.540;8.576;2023-08-06T05:32:27;4.10;;;1.90;;
16826;SDS011;8530;49.540;8.576;2023-08-06T05:34:54;9.27;;;2.77;;
16826;SDS011;8530;49.540;8.576;2023-08-06T05:37:22;6.53;;;2.03;;
16826;SDS011;8530;49.540;8.576;2023-08-06T05:39:49;3.87;;;2.13;;
16826;SDS011;8530;49.540;8.576;2023-08-06T05:42:16;2.83;;;1.80;;
16826;SDS011;8530;49.540;8.576;2023-08-06T05:44:42;4.53;;;2.13;;
16826;SDS011;8530;49.540;8.576;2023-08-06T05:47:09;4.53;;;2.47;;
16826;SDS011;8530;49.540;8.576;2023-08-06T05:49:36;5.03;;;2.10;;
16826;SDS011;8530;49.540;8.576;2023-08-06T05:52:03;4.37;;;2.23;;
16826;SDS011;8530;49.540;8.576;2023-08-06T05:54:34;2.33;;;2.10;;
16826;SDS011;8530;49.540;8.576;2023-08-06T05:57:01;3.17;;;1.87;;
16826;SDS011;8530;49.540;8.576;2023-08-06T05:59:28;3.83;;;2.23;;
16826;SDS011;8530;49.540;8.576;2023-08-06T06:01:55;4.27;;;2.70;;
16826;SDS011;8530;49.540;8.576;2023-08-06T06:04:21;7.53;;;2.67;;
16826;SDS011;8530;49.540;8.576;2023-08-06T06:06:48;4.30;;;1.80;;
16826;SDS011;8530;49.540;8.576;2023-08-06T06:09:14;2.53;;;2.17;;
16826;SDS011;8530;49.540;8.576;2023-08-06T06:11:42;2.90;;;2.03;;
16826;SDS011;8530;49.540;8.576;2023-08-06T06:14:09;6.07;;;2.40;;
16826;SDS011;8530;49.540;8.576;2023-08-06T06:16:36;4.93;;;2.30;;
16826;SDS011;8530;49.540;8.576;2023-08-06T06:19:03;4.77;;;2.47;;
16826;SDS011;8530;49.540;8.576;2023-08-06T06:21:29;5.43;;;2.60;;
16826;SDS011;8530;49.540;8.576;2023-08-06T06:23:56;2.50;;;2.00;;
16826;SDS011;8530;49.540;8.576;2023-08-06T06:26:22;5.40;;;2.53;;
16826;SDS011;8530;49.540;8.576;2023-08-06T06:28:50;2.97;;;2.27;;
16826;SDS011;8530;49.540;8.576;2023-08-06T06:31:17;8.33;;;2.67;;
16826;SDS011;8530;49.540;8.576;2023-08-06T06:33:44;4.00;;;2.30;;
16826;SDS011;8530;49.540;8.576;2023-08-06T06:36:11;3.83;;;1.70;;
16826;SDS011;8530;49.540;8.576;2023-08-06T06:38:37;6.57;;;2.20;;
16826;SDS011;8530;49.540;8.576;2023-08-06T06:41:04;5.70;;;2.17;;
16826;SDS011;8530;49.540;8.576;2023-08-06T06:43:31;4.67;;;3.23;;
16826;SDS011;8530;49.540;8.576;2023-08-06T06:45:59;4.73;;;2.10;;
16826;SDS011;8530;49.540;8.576;2023-08-06T06:48:26;7.43;;;2.83;;
16826;SDS011;8530;49.540;8.576;2023-08-06T06:50:54;5.20;;;2.40;;
16826;SDS011;8530;49.540;8.576;2023-08-06T06:53:20;4.83;;;2.40;;
16826;SDS011;8530;49.540;8.576;2023-08-06T06:55:52;3.70;;;1.93;;
16826;SDS011;8530;49.540;8.576;2023-08-06T06:58:18;3.13;;;2.10;;
16826;SDS011;8530;49.540;8.576;2023-08-06T07:00:45;5.73;;;2.13;;
16826;SDS011;8530;49.540;8.576;2023-08-06T07:03:14;5.83;;;2.60;;
16826;SDS011;8530;49.540;8.576;2023-08-06T07:05:41;6.30;;;2.13;;
16826;SDS011;8530;49.540;8.576;2023-08-06T07:08:09;4.37;;;1.97;;
16826;SDS011;8530;49.540;8.576;2023-08-06T07:10:35;2.73;;;1.80;;
16826;SDS011;8530;49.540;8.576;2023-08-06T07:13:02;9.20;;;1.93;;
16826;SDS011;8530;49.540;8.576;2023-08-06T07:15:29;12.93;;;1.53;;
16826;SDS011;8530;49.540;8.576;2023-08-06T07:17:56;5.00;;;1.60;;
16826;SDS011;8530;49.540;8.576;2023-08-06T07:20:25;2.70;;;1.70;;
16826;SDS011;8530;49.540;8.576;2023-08-06T07:22:54;5.90;;;1.47;;
16826;SDS011;8530;49.540;8.576;2023-08-06T07:25:20;1.63;;;1.33;;
16826;SDS011;8530;49.540;8.576;2023-08-06T07:27:47;1.97;;;1.20;;
16826;SDS011;8530;49.540;8.576;2023-08-06T07:30:14;2.43;;;1.40;;
16826;SDS011;8530;49.540;8.576;2023-08-06T07:32:41;2.90;;;1.30;;
16826;SDS011;8530;49.540;8.576;2023-08-06T07:35:08;2.13;;;1.40;;
16826;SDS011;8530;49.540;8.576;2023-08-06T07:37:38;1.97;;;1.30;;
16826;SDS011;8530;49.540;8.576;2023-08-06T07:40:06;2.03;;;1.20;;
16826;SDS011;8530;49.540;8.576;2023-08-06T07:42:33;6.00;;;1.83;;
16826;SDS011;8530;49.540;8.576;2023-08-06T07:45:01;1.27;;;1.03;;
16826;SDS011;8530;49.540;8.576;2023-08-06T07:47:28;2.37;;;1.30;;
16826;SDS011;8530;49.540;8.576;2023-08-06T07:49:55;2.27;;;1.33;;
16826;SDS011;8530;49.540;8.576;2023-08-06T07:52:21;1.70;;;1.07;;
16826;SDS011;8530;49.540;8.576;2023-08-06T07:54:49;1.80;;;1.20;;
16826;SDS011;8530;49.540;8.576;2023-08-06T07:57:16;1.53;;;1.20;;
16826;SDS011;8530;49.540;8.576;2023-08-06T07:59:43;1.90;;;1.10;;
16826;SDS011;8530;49.540;8.576;2023-08-06T08:02:09;2.07;;;1.37;;
16826;SDS011;8530;49.540;8.576;2023-08-06T08:04:36;1.40;;;1.10;;
16826;SDS011;8530;49.540;8.576;2023-08-06T08:07:03;1.70;;;1.30;;
16826;SDS011;8530;49.540;8.576;2023-08-06T08:09:30;1.93;;;1.10;;
16826;SDS011;8530;49.540;8.576;2023-08-06T08:11:58;3.27;;;1.73;;
16826;SDS011;8530;49.540;8.576;2023-08-06T08:14:26;1.60;;;1.13;;
16826;SDS011;8530;49.540;8.576;2023-08-06T08:16:53;1.83;;;1.30;;
16826;SDS011;8530;49.540;8.576;2023-08-06T08:19:20;4.37;;;1.20;;
16826;SDS011;8530;49.540;8.576;2023-08-06T08:21:47;1.47;;;1.00;;
16826;SDS011;8530;49.540;8.576;2023-08-06T08:24:14;3.83;;;1.10;;
16826;SDS011;8530;49.540;8.576;2023-08-06T08:26:40;1.50;;;1.23;;
16826;SDS011;8530;49.540;8.576;2023-08-06T08:29:08;1.67;;;1.37;;
16826;SDS011;8530;49.540;8.576;2023-08-06T08:31:35;1.93;;;1.10;;
16826;SDS011;8530;49.540;8.576;2023-08-06T08:34:04;2.03;;;1.60;;
16826;SDS011;8530;49.540;8.576;2023-08-06T08:36:31;1.93;;;1.37;;
16826;SDS011;8530;49.540;8.576;2023-08-06T08:38:58;3.00;;;1.10;;
16826;SDS011;8530;49.540;8.576;2023-08-06T08:41:24;2.37;;;1.33;;
16826;SDS011;8530;49.540;8.576;2023-08-06T08:43:53;1.00;;;0.80;;
16826;SDS011;8530;49.540;8.576;2023-08-06T08:46:22;1.47;;;1.30;;
16826;SDS011;8530;49.540;8.576;2023-08-06T08:48:52;1.20;;;1.00;;
16826;SDS011;8530;49.540;8.576;2023-08-06T08:51:19;1.10;;;0.90;;
16826;SDS011;8530;49.540;8.576;2023-08-06T08:53:46;1.60;;;1.10;;
16826;SDS011;8530;49.540;8.576;2023-08-06T08:56:14;2.13;;;1.13;;
16826;SDS011;8530;49.540;8.576;2023-08-06T08:58:41;1.90;;;1.47;;
16826;SDS011;8530;49.540;8.576;2023-08-06T09:01:08;2.03;;;0.90;;
16826;SDS011;8530;49.540;8.576;2023-08-06T09:03:37;2.20;;;1.13;;
16826;SDS011;8530;49.540;8.576;2023-08-06T09:06:05;1.60;;;1.07;;
16826;SDS011;8530;49.540;8.576;2023-08-06T09:08:37;1.53;;;0.83;;
16826;SDS011;8530;49.540;8.576;2023-08-06T09:11:07;1.10;;;0.90;;
16826;SDS011;8530;49.540;8.576;2023-08-06T09:13:36;1.33;;;1.10;;
16826;SDS011;8530;49.540;8.576;2023-08-06T09:16:03;1.20;;;1.00;;
16826;SDS011;8530;49.540;8.576;2023-08-06T09:18:30;2.30;;;1.23;;
16826;SDS011;8530;49.540;8.576;2023-08-06T09:20:59;2.03;;;1.00;;
16826;SDS011;8530;49.540;8.576;2023-08-06T09:23:29;1.20;;;0.90;;
16826;SDS011;8530;49.540;8.576;2023-08-06T09:25:56;1.10;;;1.00;;
16826;SDS011;8530;49.540;8.576;2023-08-06T09:28:23;2.23;;;1.00;;
16826;SDS011;8530;49.540;8.576;2023-08-06T09:30:50;1.03;;;0.80;;
16826;SDS011;8530;49.540;8.576;2023-08-06T09:33:20;7.23;;;1.40;;
16826;SDS011;8530;49.540;8.576;2023-08-06T09:35:49;1.10;;;0.90;;
16826;SDS011;8530;49.540;8.576;2023-08-06T09:38:17;1.10;;;0.90;;
16826;SDS011;8530;49.540;8.576;2023-08-06T09:40:43;1.40;;;0.90;;
16826;SDS011;8530;49.540;8.576;2023-08-06T09:43:10;1.20;;;0.90;;
16826;SDS011;8530;49.540;8.576;2023-08-06T09:45:38;1.50;;;1.10;;
16826;SDS011;8530;49.540;8.576;2023-08-06T09:48:06;1.10;;;0.80;;
16826;SDS011;8530;49.540;8.576;2023-08-06T09:50:34;1.60;;;1.00;;
16826;SDS011;8530;49.540;8.576;2023-08-06T09:53:02;3.03;;;1.20;;
16826;SDS011;8530;49.540;8.576;2023-08-06T09:55:31;1.20;;;0.90;;
16826;SDS011;8530;49.540;8.576;2023-08-06T09:57:59;1.67;;;1.10;;
16826;SDS011;8530;49.540;8.576;2023-08-06T10:00:26;1.97;;;1.20;;
16826;SDS011;8530;49.540;8.576;2023-08-06T10:02:53;3.83;;;1.27;;
16826;SDS011;8530;49.540;8.576;2023-08-06T10:05:21;1.60;;;1.00;;
16826;SDS011;8530;49.540;8.576;2023-08-06T10:07:48;1.10;;;0.90;;
16826;SDS011;8530;49.540;8.576;2023-08-06T10:10:16;1.00;;;0.77;;
16826;SDS011;8530;49.540;8.576;2023-08-06T10:12:46;1.00;;;0.80;;
16826;SDS011;8530;49.540;8.576;2023-08-06T10:15:16;1.33;;;0.90;;
16826;SDS011;8530;49.540;8.576;2023-08-06T10:17:48;1.10;;;0.80;;
16826;SDS011;8530;49.540;8.576;2023-08-06T10:20:18;1.23;;;0.80;;
16826;SDS011;8530;49.540;8.576;2023-08-06T10:22:54;2.50;;;0.70;;
16826;SDS011;8530;49.540;8.576;2023-08-06T10:25:29;1.20;;;0.83;;
16826;SDS011;8530;49.540;8.576;2023-08-06T10:27:59;1.10;;;0.77;;
16826;SDS011;8530;49.540;8.576;2023-08-06T10:30:27;2.97;;;1.10;;
16826;SDS011;8530;49.540;8.576;2023-08-06T10:32:56;1.50;;;0.80;;
16826;SDS011;8530;49.540;8.576;2023-08-06T10:35:29;3.30;;;1.20;;
16826;SDS011;8530;49.540;8.576;2023-08-06T10:38:02;1.57;;;0.97;;
16826;SDS011;8530;49.540;8.576;2023-08-06T10:40:30;1.20;;;1.00;;
16826;SDS011;8530;49.540;8.576;2023-08-06T10:42:59;2.03;;;1.17;;
16826;SDS011;8530;49.540;8.576;2023-08-06T10:45:26;1.20;;;1.00;;
16826;SDS011;8530;49.540;8.576;2023-08-06T10:47:55;2.60;;;1.10;;
16826;SDS011;8530;49.540;8.576;2023-08-06T10:50:22;1.20;;;0.97;;
16826;SDS011;8530;49.540;8.576;2023-08-06T10:52:50;2.00;;;1.10;;
16826;SDS011;8530;49.540;8.576;2023-08-06T10:55:24;1.83;;;0.90;;
16826;SDS011;8530;49.540;8.576;2023-08-06T10:57:53;1.73;;;1.30;;
16826;SDS011;8530;49.540;8.576;2023-08-06T11:00:22;2.03;;;1.37;;
16826;SDS011;8530;49.540;8.576;2023-08-06T11:02:49;1.27;;;0.97;;
16826;SDS011;8530;49.540;8.576;2023-08-06T11:05:17;2.20;;;1.27;;
16826;SDS011;8530;49.540;8.576;2023-08-06T11:07:43;1.30;;;1.00;;
16826;SDS011;8530;49.540;8.576;2023-08-06T11:10:13;1.60;;;1.47;;
16826;SDS011;8530;49.540;8.576;2023-08-06T11:12:39;1.40;;;1.10;;
16826;SDS011;8530;49.540;8.576;2023-08-06T11:15:07;1.73;;;1.40;;
16826;SDS011;8530;49.540;8.576;2023-08-06T11:17:35;3.17;;;1.40;;
16826;SDS011;8530;49.540;8.576;2023-08-06T11:20:03;1.87;;;1.30;;
16826;SDS011;8530;49.540;8.576;2023-08-06T11:22:31;1.40;;;1.13;;
16826;SDS011;8530;49.540;8.576;2023-08-06T11:24:58;1.70;;;1.30;;
16826;SDS011;8530;49.540;8.576;2023-08-06T11:27:26;2.03;;;1.73;;
16826;SDS011;8530;49.540;8.576;2023-08-06T11:29:53;1.87;;;1.40;;
16826;SDS011;8530;49.540;8.576;2023-08-06T11:32:20;1.57;;;1.23;;
16826;SDS011;8530;49.540;8.576;2023-08-06T11:34:49;1.17;;;1.00;;
16826;SDS011;8530;49.540;8.576;2023-08-06T11:37:15;1.30;;;1.10;;
16826;SDS011;8530;49.540;8.576;2023-08-06T11:39:44;1.27;;;0.97;;
16826;SDS011;8530;49.540;8.576;2023-08-06T11:42:13;1.20;;;0.90;;
16826;SDS011;8530;49.540;8.576;2023-08-06T11:44:41;1.63;;;0.97;;
16826;SDS011;8530;49.540;8.576;2023-08-06T11:47:12;1.33;;;1.23;;
16826;SDS011;8530;49.540;8.576;2023-08-06T11:49:40;1.43;;;1.10;;
16826;SDS011;8530;49.540;8.576;2023-08-06T11:52:13;1.23;;;1.00;;
16826;SDS011;8530;49.540;8.576;2023-08-06T11:54:43;1.90;;;1.67;;
16826;SDS011;8530;49.540;8.576;2023-08-06T11:57:11;2.30;;;1.07;;
16826;SDS011;8530;49.540;8.576;2023-08-06T11:59:38;1.63;;;1.07;;
16826;SDS011;8530;49.540;8.576;2023-08-06T12:02:05;2.43;;;1.40;;
16826;SDS011;8530;49.540;8.576;2023-08-06T12:07:27;1.73;;;1.30;;
16826;SDS011;8530;49.540;8.576;2023-08-06T12:09:56;1.30;;;1.07;;
16826;SDS011;8530;49.540;8.576;2023-08-06T12:12:23;1.70;;;1.40;;
16826;SDS011;8530;49.540;8.576;2023-08-06T12:14:50;3.30;;;1.77;;
16826;SDS011;8530;49.540;8.576;2023-08-06T12:17:17;2.53;;;1.63;;
16826;SDS011;8530;49.540;8.576;2023-08-06T12:19:44;2.20;;;1.47;;
16826;SDS011;8530;49.540;8.576;2023-08-06T12:22:12;2.60;;;1.77;;
16826;SDS011;8530;49.540;8.576;2023-08-06T12:24:40;2.33;;;1.80;;
16826;SDS011;8530;49.540;8.576;2023-08-06T12:27:07;4.13;;;1.70;;
16826;SDS011;8530;49.540;8.576;2023-08-06T12:29:34;2.77;;;1.70;;
16826;SDS011;8530;49.540;8.576;2023-08-06T12:32:01;1.40;;;1.30;;
16826;SDS011;8530;49.540;8.576;2023-08-06T12:34:29;2.07;;;1.50;;
16826;SDS011;8530;49.540;8.576;2023-08-06T12:36:55;2.30;;;1.60;;
16826;SDS011;8530;49.540;8.576;2023-08-06T12:39:22;2.67;;;1.73;;
16826;SDS011;8530;49.540;8.576;2023-08-06T12:41:51;3.30;;;1.83;;
16826;SDS011;8530;49.540;8.576;2023-08-06T12:44:17;2.27;;;1.43;;
16826;SDS011;8530;49.540;8.576;2023-08-06T12:46:44;2.43;;;2.10;;
16826;SDS011;8530;49.540;8.576;2023-08-06T12:49:11;2.30;;;1.90;;
16826;SDS011;8530;49.540;8.576;2023-08-06T12:51:37;2.60;;;1.90;;
16826;SDS011;8530;49.540;8.576;2023-08-06T12:54:04;1.70;;;1.33;;
16826;SDS011;8530;49.540;8.576;2023-08-06T12:56:31;2.10;;;1.10;;
16826;SDS011;8530;49.540;8.576;2023-08-06T12:58:59;2.63;;;1.90;;
16826;SDS011;8530;49.540;8.576;2023-08-06T13:01:25;2.50;;;1.70;;
16826;SDS011;8530;49.540;8.576;2023-08-06T13:03:52;2.77;;;1.90;;
16826;SDS011;8530;49.540;8.576;2023-08-06T13:06:19;5.33;;;1.50;;
16826;SDS011;8530;49.540;8.576;2023-08-06T13:08:46;2.97;;;1.60;;
16826;SDS011;8530;49.540;8.576;2023-08-06T13:11:27;3.73;;;2.00;;
16826;SDS011;8530;49.540;8.576;2023-08-06T13:13:54;2.27;;;1.67;;
16826;SDS011;8530;49.540;8.576;2023-08-06T13:16:22;2.70;;;1.80;;
16826;SDS011;8530;49.540;8.576;2023-08-06T13:18:48;2.27;;;1.53;;
16826;SDS011;8530;49.540;8.576;2023-08-06T13:21:15;4.93;;;1.67;;
16826;SDS011;8530;49.540;8.576;2023-08-06T13:23:42;3.30;;;1.53;;
16826;SDS011;8530;49.540;8.576;2023-08-06T13:26:08;3.97;;;1.90;;
16826;SDS011;8530;49.540;8.576;2023-08-06T13:28:35;1.13;;;1.03;;
16826;SDS011;8530;49.540;8.576;2023-08-06T13:31:02;2.60;;;1.63;;
16826;SDS011;8530;49.540;8.576;2023-08-06T13:33:30;2.10;;;1.43;;
16826;SDS011;8530;49.540;8.576;2023-08-06T13:35:56;2.03;;;1.20;;
16826;SDS011;8530;49.540;8.576;2023-08-06T13:38:23;1.30;;;1.10;;
16826;SDS011;8530;49.540;8.576;2023-08-06T13:40:50;2.20;;;0.90;;
16826;SDS011;8530;49.540;8.576;2023-08-06T13:43:17;1.70;;;1.30;;
16826;SDS011;8530;49.540;8.576;2023-08-06T13:45:44;2.50;;;1.20;;
16826;SDS011;8530;49.540;8.576;2023-08-06T13:48:10;1.93;;;1.50;;
16826;SDS011;8530;49.540;8.576;2023-08-06T13:50:38;1.60;;;1.37;;
16826;SDS011;8530;49.540;8.576;2023-08-06T13:53:05;2.30;;;1.37;;
16826;SDS011;8530;49.540;8.576;2023-08-06T13:55:32;1.50;;;1.20;;
16826;SDS011;8530;49.540;8.576;2023-08-06T13:57:59;2.10;;;1.70;;
16826;SDS011;8530;49.540;8.576;2023-08-06T14:00:25;3.37;;;1.43;;
16826;SDS011;8530;49.540;8.576;2023-08-06T14:02:52;4.10;;;1.67;;
16826;SDS011;8530;49.540;8.576;2023-08-06T14:05:19;3.37;;;1.70;;
16826;SDS011;8530;49.540;8.576;2023-08-06T14:07:47;3.10;;;1.63;;
16826;SDS011;8530;49.540;8.576;2023-08-06T14:10:13;2.43;;;1.40;;
16826;SDS011;8530;49.540;8.576;2023-08-06T14:12:40;2.30;;;1.30;;
16826;SDS011;8530;49.540;8.576;2023-08-06T14:15:07;4.63;;;2.13;;
16826;SDS011;8530;49.540;8.576;2023-08-06T14:17:35;5.67;;;1.60;;
16826;SDS011;8530;49.540;8.576;2023-08-06T14:20:01;1.60;;;1.10;;
16826;SDS011;8530;49.540;8.576;2023-08-06T14:22:29;2.40;;;2.00;;
16826;SDS011;8530;49.540;8.576;2023-08-06T14:24:57;2.73;;;1.83;;
16826;SDS011;8530;49.540;8.576;2023-08-06T14:27:24;9.00;;;1.40;;
16826;SDS011;8530;49.540;8.576;2023-08-06T14:29:51;3.67;;;1.50;;
16826;SDS011;8530;49.540;8.576;2023-08-06T14:32:18;1.90;;;1.33;;
16826;SDS011;8530;49.540;8.576;2023-08-06T14:34:44;4.87;;;1.37;;
16826;SDS011;8530;49.540;8.576;2023-08-06T14:37:11;1.90;;;1.40;;
16826;SDS011;8530;49.540;8.576;2023-08-06T14:39:38;2.17;;;1.70;;
16826;SDS011;8530;49.540;8.576;2023-08-06T14:42:06;4.60;;;1.80;;
16826;SDS011;8530;49.540;8.576;2023-08-06T14:44:33;4.13;;;2.23;;
16826;SDS011;8530;49.540;8.576;2023-08-06T14:46:59;2.90;;;2.13;;
16826;SDS011;8530;49.540;8.576;2023-08-06T14:49:26;2.70;;;1.80;;
16826;SDS011;8530;49.540;8.576;2023-08-06T14:51:53;2.37;;;1.43;;
16826;SDS011;8530;49.540;8.576;2023-08-06T14:54:19;2.17;;;1.50;;
16826;SDS011;8530;49.540;8.576;2023-08-06T14:56:46;7.40;;;1.90;;
16826;SDS011;8530;49.540;8.576;2023-08-06T14:59:14;2.57;;;1.60;;
16826;SDS011;8530;49.540;8.576;2023-08-06T15:01:41;2.23;;;1.37;;
16826;SDS011;8530;49.540;8.576;2023-08-06T15:04:07;1.73;;;1.47;;